sensor_id;sensor_type;location;lat;lon;timestamp;P1;durP1;ratioP1;P2;durP2;ratioP2
30647;SDS011;17683;53.360;9.736;2024-03-07T00:02:10;23.75;;;15.00;;
30647;SDS011;17683;53.360;9.736;2024-03-07T00:04:36;25.98;;;15.45;;
30647;SDS011;17683;53.360;9.736;2024-03-07T00:07:02;26.95;;;16.52;;
30647;SDS011;17683;53.360;9.736;2024-03-07T00:09:31;26.33;;;15.95;;
30647;SDS011;17683;53.360;9.736;2024-03-07T00:11:57;24.58;;;16.13;;
30647;SDS011;17683;53.360;9.736;2024-03-07T00:14:24;23.10;;;15.40;;
30647;SDS011;17683;53.360;9.736;2024-03-07T00:16:54;22.02;;;14.88;;
30647;SDS011;17683;53.360;9.736;2024-03-07T00:19:20;22.50;;;14.45;;
30647;SDS011;17683;53.360;9.736;2024-03-07T00:21:46;29.63;;;16.02;;
30647;SDS011;17683;53.360;9.736;2024-03-07T00:24:12;26.45;;;16.90;;
30647;SDS011;17683;53.360;9.736;2024-03-07T00:26:41;23.33;;;15.57;;
30647;SDS011;17683;53.360;9.736;2024-03-07T00:29:06;22.17;;;15.05;;
30647;SDS011;17683;53.360;9.736;2024-03-07T00:31:32;23.75;;;15.35;;
30647;SDS011;17683;53.360;9.736;2024-03-07T00:33:58;24.77;;;16.42;;
30647;SDS011;17683;53.360;9.736;2024-03-07T00:36:24;24.55;;;15.32;;
30647;SDS011;17683;53.360;9.736;2024-03-07T00:38:51;22.15;;;14.10;;
30647;SDS011;17683;53.360;9.736;2024-03-07T00:41:17;22.60;;;15.55;;
30647;SDS011;17683;53.360;9.736;2024-03-07T00:43:44;30.38;;;18.05;;
30647;SDS011;17683;53.360;9.736;2024-03-07T00:46:10;24.75;;;16.55;;
30647;SDS011;17683;53.360;9.736;2024-03-07T00:48:36;24.45;;;15.25;;
30647;SDS011;17683;53.360;9.736;2024-03-07T00:51:02;25.17;;;17.58;;
30647;SDS011;17683;53.360;9.736;2024-03-07T00:53:29;30.00;;;17.77;;
30647;SDS011;17683;53.360;9.736;2024-03-07T00:55:56;27.60;;;19.75;;
30647;SDS011;17683;53.360;9.736;2024-03-07T00:58:22;35.95;;;21.13;;
30647;SDS011;17683;53.360;9.736;2024-03-07T01:00:47;31.33;;;18.58;;
30647;SDS011;17683;53.360;9.736;2024-03-07T01:03:14;38.47;;;22.75;;
30647;SDS011;17683;53.360;9.736;2024-03-07T01:05:42;36.88;;;23.20;;
30647;SDS011;17683;53.360;9.736;2024-03-07T01:08:08;42.67;;;23.98;;
30647;SDS011;17683;53.360;9.736;2024-03-07T01:10:34;46.80;;;25.63;;
30647;SDS011;17683;53.360;9.736;2024-03-07T01:13:00;46.90;;;25.08;;
30647;SDS011;17683;53.360;9.736;2024-03-07T01:15:27;60.97;;;31.00;;
30647;SDS011;17683;53.360;9.736;2024-03-07T01:17:53;53.35;;;28.98;;
30647;SDS011;17683;53.360;9.736;2024-03-07T01:20:21;47.70;;;26.75;;
30647;SDS011;17683;53.360;9.736;2024-03-07T01:22:48;50.55;;;29.17;;
30647;SDS011;17683;53.360;9.736;2024-03-07T01:25:16;52.55;;;27.15;;
30647;SDS011;17683;53.360;9.736;2024-03-07T01:27:42;45.33;;;26.75;;
30647;SDS011;17683;53.360;9.736;2024-03-07T01:30:09;44.90;;;25.85;;
30647;SDS011;17683;53.360;9.736;2024-03-07T01:32:35;45.38;;;25.42;;
30647;SDS011;17683;53.360;9.736;2024-03-07T01:35:01;50.45;;;27.13;;
30647;SDS011;17683;53.360;9.736;2024-03-07T01:37:27;49.42;;;26.23;;
30647;SDS011;17683;53.360;9.736;2024-03-07T01:39:53;46.53;;;26.73;;
30647;SDS011;17683;53.360;9.736;2024-03-07T01:42:19;46.80;;;26.40;;
30647;SDS011;17683;53.360;9.736;2024-03-07T01:44:45;45.65;;;27.02;;
30647;SDS011;17683;53.360;9.736;2024-03-07T01:47:11;46.58;;;26.98;;
30647;SDS011;17683;53.360;9.736;2024-03-07T01:49:39;55.70;;;28.45;;
30647;SDS011;17683;53.360;9.736;2024-03-07T01:52:05;51.17;;;27.17;;
30647;SDS011;17683;53.360;9.736;2024-03-07T01:54:31;52.40;;;27.83;;
30647;SDS011;17683;53.360;9.736;2024-03-07T01:56:58;45.42;;;24.85;;
30647;SDS011;17683;53.360;9.736;2024-03-07T01:59:24;43.08;;;25.10;;
30647;SDS011;17683;53.360;9.736;2024-03-07T02:01:52;46.63;;;27.38;;
30647;SDS011;17683;53.360;9.736;2024-03-07T02:04:17;48.90;;;27.20;;
30647;SDS011;17683;53.360;9.736;2024-03-07T02:06:43;43.17;;;25.48;;
30647;SDS011;17683;53.360;9.736;2024-03-07T02:09:10;47.20;;;26.40;;
30647;SDS011;17683;53.360;9.736;2024-03-07T02:11:35;46.08;;;26.75;;
30647;SDS011;17683;53.360;9.736;2024-03-07T02:14:01;45.97;;;26.80;;
30647;SDS011;17683;53.360;9.736;2024-03-07T02:16:27;49.85;;;27.98;;
30647;SDS011;17683;53.360;9.736;2024-03-07T02:18:53;48.83;;;28.25;;
30647;SDS011;17683;53.360;9.736;2024-03-07T02:21:20;50.67;;;27.80;;
30647;SDS011;17683;53.360;9.736;2024-03-07T02:23:46;64.20;;;34.08;;
30647;SDS011;17683;53.360;9.736;2024-03-07T02:26:12;66.47;;;33.65;;
30647;SDS011;17683;53.360;9.736;2024-03-07T02:28:38;61.45;;;32.72;;
30647;SDS011;17683;53.360;9.736;2024-03-07T02:31:04;64.28;;;32.38;;
30647;SDS011;17683;53.360;9.736;2024-03-07T02:33:29;65.25;;;34.45;;
30647;SDS011;17683;53.360;9.736;2024-03-07T02:35:57;61.85;;;34.13;;
30647;SDS011;17683;53.360;9.736;2024-03-07T02:38:23;58.58;;;32.58;;
30647;SDS011;17683;53.360;9.736;2024-03-07T02:40:49;53.70;;;31.40;;
30647;SDS011;17683;53.360;9.736;2024-03-07T02:43:15;57.55;;;30.33;;
30647;SDS011;17683;53.360;9.736;2024-03-07T02:45:41;60.20;;;32.47;;
30647;SDS011;17683;53.360;9.736;2024-03-07T02:48:06;53.38;;;29.40;;
30647;SDS011;17683;53.360;9.736;2024-03-07T02:50:37;52.63;;;29.58;;
30647;SDS011;17683;53.360;9.736;2024-03-07T02:53:03;52.33;;;28.85;;
30647;SDS011;17683;53.360;9.736;2024-03-07T02:55:30;55.60;;;29.15;;
30647;SDS011;17683;53.360;9.736;2024-03-07T02:57:57;51.15;;;28.75;;
30647;SDS011;17683;53.360;9.736;2024-03-07T03:00:24;49.65;;;28.58;;
30647;SDS011;17683;53.360;9.736;2024-03-07T03:02:54;52.50;;;28.65;;
30647;SDS011;17683;53.360;9.736;2024-03-07T03:05:21;49.78;;;27.52;;
30647;SDS011;17683;53.360;9.736;2024-03-07T03:07:47;45.67;;;26.42;;
30647;SDS011;17683;53.360;9.736;2024-03-07T03:10:22;46.55;;;27.17;;
30647;SDS011;17683;53.360;9.736;2024-03-07T03:12:54;47.85;;;27.23;;
30647;SDS011;17683;53.360;9.736;2024-03-07T03:15:22;47.70;;;27.20;;
30647;SDS011;17683;53.360;9.736;2024-03-07T03:17:48;48.10;;;26.50;;
30647;SDS011;17683;53.360;9.736;2024-03-07T03:20:14;43.47;;;26.85;;
30647;SDS011;17683;53.360;9.736;2024-03-07T03:22:49;48.15;;;27.25;;
30647;SDS011;17683;53.360;9.736;2024-03-07T03:25:19;44.50;;;26.67;;
30647;SDS011;17683;53.360;9.736;2024-03-07T03:27:46;43.97;;;26.20;;
30647;SDS011;17683;53.360;9.736;2024-03-07T03:30:12;46.25;;;27.52;;
30647;SDS011;17683;53.360;9.736;2024-03-07T03:32:42;42.83;;;26.42;;
30647;SDS011;17683;53.360;9.736;2024-03-07T03:35:07;47.67;;;25.70;;
30647;SDS011;17683;53.360;9.736;2024-03-07T03:37:47;46.50;;;27.63;;
30647;SDS011;17683;53.360;9.736;2024-03-07T03:40:12;43.88;;;26.00;;
30647;SDS011;17683;53.360;9.736;2024-03-07T03:42:39;42.70;;;25.35;;
30647;SDS011;17683;53.360;9.736;2024-03-07T03:45:06;48.17;;;27.40;;
30647;SDS011;17683;53.360;9.736;2024-03-07T03:47:33;51.75;;;28.25;;
30647;SDS011;17683;53.360;9.736;2024-03-07T03:50:01;49.50;;;29.10;;
30647;SDS011;17683;53.360;9.736;2024-03-07T03:52:28;49.90;;;28.80;;
30647;SDS011;17683;53.360;9.736;2024-03-07T03:54:54;49.60;;;27.58;;
30647;SDS011;17683;53.360;9.736;2024-03-07T03:57:19;46.75;;;27.35;;
30647;SDS011;17683;53.360;9.736;2024-03-07T03:59:45;50.85;;;27.10;;
30647;SDS011;17683;53.360;9.736;2024-03-07T04:02:11;44.05;;;27.42;;
30647;SDS011;17683;53.360;9.736;2024-03-07T04:04:40;45.45;;;25.85;;
30647;SDS011;17683;53.360;9.736;2024-03-07T04:07:06;44.85;;;25.48;;
30647;SDS011;17683;53.360;9.736;2024-03-07T04:09:31;44.17;;;27.42;;
30647;SDS011;17683;53.360;9.736;2024-03-07T04:11:57;47.33;;;26.90;;
30647;SDS011;17683;53.360;9.736;2024-03-07T04:14:24;46.53;;;27.48;;
30647;SDS011;17683;53.360;9.736;2024-03-07T04:16:50;47.17;;;26.83;;
30647;SDS011;17683;53.360;9.736;2024-03-07T04:19:17;45.60;;;27.45;;
30647;SDS011;17683;53.360;9.736;2024-03-07T04:21:45;43.70;;;25.92;;
30647;SDS011;17683;53.360;9.736;2024-03-07T04:24:11;57.60;;;31.55;;
30647;SDS011;17683;53.360;9.736;2024-03-07T04:26:37;63.05;;;32.30;;
30647;SDS011;17683;53.360;9.736;2024-03-07T04:29:03;57.47;;;30.60;;
30647;SDS011;17683;53.360;9.736;2024-03-07T04:31:29;46.13;;;26.77;;
30647;SDS011;17683;53.360;9.736;2024-03-07T04:33:54;55.80;;;29.10;;
30647;SDS011;17683;53.360;9.736;2024-03-07T04:36:20;54.80;;;28.90;;
30647;SDS011;17683;53.360;9.736;2024-03-07T04:38:46;45.92;;;26.27;;
30647;SDS011;17683;53.360;9.736;2024-03-07T04:41:12;47.35;;;27.95;;
30647;SDS011;17683;53.360;9.736;2024-03-07T04:43:40;51.88;;;27.52;;
30647;SDS011;17683;53.360;9.736;2024-03-07T04:46:07;50.13;;;25.92;;
30647;SDS011;17683;53.360;9.736;2024-03-07T04:48:33;43.22;;;23.98;;
30647;SDS011;17683;53.360;9.736;2024-03-07T04:50:59;46.67;;;25.05;;
30647;SDS011;17683;53.360;9.736;2024-03-07T04:53:25;45.60;;;24.23;;
30647;SDS011;17683;53.360;9.736;2024-03-07T04:55:50;43.45;;;25.00;;
30647;SDS011;17683;53.360;9.736;2024-03-07T04:58:16;48.75;;;24.58;;
30647;SDS011;17683;53.360;9.736;2024-03-07T05:00:42;44.97;;;23.77;;
30647;SDS011;17683;53.360;9.736;2024-03-07T05:03:08;48.38;;;25.00;;
30647;SDS011;17683;53.360;9.736;2024-03-07T05:05:34;46.65;;;23.77;;
30647;SDS011;17683;53.360;9.736;2024-03-07T05:08:00;46.13;;;22.75;;
30647;SDS011;17683;53.360;9.736;2024-03-07T05:10:26;45.22;;;24.35;;
30647;SDS011;17683;53.360;9.736;2024-03-07T05:12:54;40.67;;;22.48;;
30647;SDS011;17683;53.360;9.736;2024-03-07T05:15:20;47.67;;;21.88;;
30647;SDS011;17683;53.360;9.736;2024-03-07T05:17:50;39.70;;;22.17;;
30647;SDS011;17683;53.360;9.736;2024-03-07T05:20:17;39.28;;;19.90;;
30647;SDS011;17683;53.360;9.736;2024-03-07T05:22:43;35.90;;;18.33;;
30647;SDS011;17683;53.360;9.736;2024-03-07T05:25:30;37.75;;;18.15;;
30647;SDS011;17683;53.360;9.736;2024-03-07T05:27:56;38.83;;;21.10;;
30647;SDS011;17683;53.360;9.736;2024-03-07T05:30:21;41.42;;;20.08;;
30647;SDS011;17683;53.360;9.736;2024-03-07T05:32:49;34.90;;;19.45;;
30647;SDS011;17683;53.360;9.736;2024-03-07T05:35:15;35.88;;;19.38;;
30647;SDS011;17683;53.360;9.736;2024-03-07T05:37:41;38.42;;;19.98;;
30647;SDS011;17683;53.360;9.736;2024-03-07T05:40:11;38.15;;;19.10;;
30647;SDS011;17683;53.360;9.736;2024-03-07T05:42:37;39.38;;;20.17;;
30647;SDS011;17683;53.360;9.736;2024-03-07T05:45:03;36.63;;;19.42;;
30647;SDS011;17683;53.360;9.736;2024-03-07T05:47:33;32.45;;;19.80;;
30647;SDS011;17683;53.360;9.736;2024-03-07T05:49:59;35.22;;;19.13;;
30647;SDS011;17683;53.360;9.736;2024-03-07T05:52:24;40.13;;;20.52;;
30647;SDS011;17683;53.360;9.736;2024-03-07T05:54:50;35.72;;;20.08;;
30647;SDS011;17683;53.360;9.736;2024-03-07T05:57:16;33.15;;;19.00;;
30647;SDS011;17683;53.360;9.736;2024-03-07T05:59:42;34.08;;;16.80;;
30647;SDS011;17683;53.360;9.736;2024-03-07T06:02:07;36.28;;;18.75;;
30647;SDS011;17683;53.360;9.736;2024-03-07T06:04:33;34.45;;;18.25;;
30647;SDS011;17683;53.360;9.736;2024-03-07T06:06:59;37.15;;;19.23;;
30647;SDS011;17683;53.360;9.736;2024-03-07T06:09:25;37.22;;;20.05;;
30647;SDS011;17683;53.360;9.736;2024-03-07T06:11:51;38.53;;;21.83;;
30647;SDS011;17683;53.360;9.736;2024-03-07T06:14:17;35.70;;;20.15;;
30647;SDS011;17683;53.360;9.736;2024-03-07T06:16:45;37.38;;;19.38;;
30647;SDS011;17683;53.360;9.736;2024-03-07T06:19:10;33.00;;;19.05;;
30647;SDS011;17683;53.360;9.736;2024-03-07T06:21:37;43.45;;;21.60;;
30647;SDS011;17683;53.360;9.736;2024-03-07T06:24:06;32.30;;;19.52;;
30647;SDS011;17683;53.360;9.736;2024-03-07T06:26:34;33.60;;;19.45;;
30647;SDS011;17683;53.360;9.736;2024-03-07T06:29:10;37.25;;;19.00;;
30647;SDS011;17683;53.360;9.736;2024-03-07T06:31:36;31.98;;;18.90;;
30647;SDS011;17683;53.360;9.736;2024-03-07T06:34:02;34.85;;;18.27;;
30647;SDS011;17683;53.360;9.736;2024-03-07T06:36:28;42.42;;;20.85;;
30647;SDS011;17683;53.360;9.736;2024-03-07T06:38:54;31.40;;;18.23;;
30647;SDS011;17683;53.360;9.736;2024-03-07T06:41:20;33.28;;;19.00;;
30647;SDS011;17683;53.360;9.736;2024-03-07T06:43:46;32.40;;;19.42;;
30647;SDS011;17683;53.360;9.736;2024-03-07T06:46:13;33.72;;;19.55;;
30647;SDS011;17683;53.360;9.736;2024-03-07T06:48:41;36.38;;;19.10;;
30647;SDS011;17683;53.360;9.736;2024-03-07T06:51:07;36.03;;;19.45;;
30647;SDS011;17683;53.360;9.736;2024-03-07T06:53:33;31.73;;;19.45;;
30647;SDS011;17683;53.360;9.736;2024-03-07T06:55:59;33.22;;;18.88;;
30647;SDS011;17683;53.360;9.736;2024-03-07T06:58:26;32.47;;;16.92;;
30647;SDS011;17683;53.360;9.736;2024-03-07T07:00:52;34.08;;;19.73;;
30647;SDS011;17683;53.360;9.736;2024-03-07T07:03:20;30.38;;;18.15;;
30647;SDS011;17683;53.360;9.736;2024-03-07T07:05:47;29.35;;;18.75;;
30647;SDS011;17683;53.360;9.736;2024-03-07T07:08:13;37.78;;;19.27;;
30647;SDS011;17683;53.360;9.736;2024-03-07T07:10:39;30.63;;;19.33;;
30647;SDS011;17683;53.360;9.736;2024-03-07T07:13:05;31.25;;;16.67;;
30647;SDS011;17683;53.360;9.736;2024-03-07T07:15:31;28.13;;;16.65;;
30647;SDS011;17683;53.360;9.736;2024-03-07T07:17:58;35.25;;;17.65;;
30647;SDS011;17683;53.360;9.736;2024-03-07T07:20:24;29.25;;;17.98;;
30647;SDS011;17683;53.360;9.736;2024-03-07T07:22:50;28.65;;;16.85;;
30647;SDS011;17683;53.360;9.736;2024-03-07T07:25:18;30.48;;;17.42;;
30647;SDS011;17683;53.360;9.736;2024-03-07T07:27:48;27.50;;;15.48;;
30647;SDS011;17683;53.360;9.736;2024-03-07T07:30:19;25.63;;;16.55;;
30647;SDS011;17683;53.360;9.736;2024-03-07T07:32:50;27.83;;;16.40;;
30647;SDS011;17683;53.360;9.736;2024-03-07T07:35:17;30.90;;;16.65;;
30647;SDS011;17683;53.360;9.736;2024-03-07T07:37:49;31.13;;;16.75;;
30647;SDS011;17683;53.360;9.736;2024-03-07T07:40:21;26.85;;;16.23;;
30647;SDS011;17683;53.360;9.736;2024-03-07T07:42:49;26.38;;;16.33;;
30647;SDS011;17683;53.360;9.736;2024-03-07T07:45:19;28.10;;;16.00;;
30647;SDS011;17683;53.360;9.736;2024-03-07T07:47:51;25.83;;;17.10;;
30647;SDS011;17683;53.360;9.736;2024-03-07T07:50:19;24.52;;;15.63;;
30647;SDS011;17683;53.360;9.736;2024-03-07T07:52:49;28.33;;;15.50;;
30647;SDS011;17683;53.360;9.736;2024-03-07T07:55:19;23.23;;;15.07;;
30647;SDS011;17683;53.360;9.736;2024-03-07T07:57:50;25.00;;;15.23;;
30647;SDS011;17683;53.360;9.736;2024-03-07T08:00:21;21.90;;;14.60;;
30647;SDS011;17683;53.360;9.736;2024-03-07T08:02:52;27.08;;;13.98;;
30647;SDS011;17683;53.360;9.736;2024-03-07T08:05:23;25.80;;;14.82;;
30647;SDS011;17683;53.360;9.736;2024-03-07T08:07:52;27.67;;;15.15;;
30647;SDS011;17683;53.360;9.736;2024-03-07T08:10:20;26.92;;;15.60;;
30647;SDS011;17683;53.360;9.736;2024-03-07T08:12:48;25.80;;;15.00;;
30647;SDS011;17683;53.360;9.736;2024-03-07T08:15:14;22.00;;;15.05;;
30647;SDS011;17683;53.360;9.736;2024-03-07T08:17:43;22.40;;;14.32;;
30647;SDS011;17683;53.360;9.736;2024-03-07T08:20:13;27.83;;;15.52;;
30647;SDS011;17683;53.360;9.736;2024-03-07T08:22:41;29.88;;;15.43;;
30647;SDS011;17683;53.360;9.736;2024-03-07T08:25:08;25.10;;;14.15;;
30647;SDS011;17683;53.360;9.736;2024-03-07T08:27:45;24.65;;;14.25;;
30647;SDS011;17683;53.360;9.736;2024-03-07T08:30:13;25.27;;;13.88;;
30647;SDS011;17683;53.360;9.736;2024-03-07T08:35:12;21.63;;;13.32;;
30647;SDS011;17683;53.360;9.736;2024-03-07T08:37:42;23.25;;;13.98;;
30647;SDS011;17683;53.360;9.736;2024-03-07T08:40:09;22.70;;;13.00;;
30647;SDS011;17683;53.360;9.736;2024-03-07T08:42:36;22.02;;;13.23;;
30647;SDS011;17683;53.360;9.736;2024-03-07T08:45:03;22.05;;;13.55;;
30647;SDS011;17683;53.360;9.736;2024-03-07T08:47:30;21.35;;;13.30;;
30647;SDS011;17683;53.360;9.736;2024-03-07T08:49:57;22.15;;;14.23;;
30647;SDS011;17683;53.360;9.736;2024-03-07T08:52:23;19.27;;;12.85;;
30647;SDS011;17683;53.360;9.736;2024-03-07T08:54:49;17.23;;;12.55;;
30647;SDS011;17683;53.360;9.736;2024-03-07T08:57:14;22.08;;;12.80;;
30647;SDS011;17683;53.360;9.736;2024-03-07T08:59:42;20.73;;;13.25;;
30647;SDS011;17683;53.360;9.736;2024-03-07T09:02:08;23.77;;;14.20;;
30647;SDS011;17683;53.360;9.736;2024-03-07T09:04:36;18.77;;;12.05;;
30647;SDS011;17683;53.360;9.736;2024-03-07T09:07:03;19.20;;;13.55;;
30647;SDS011;17683;53.360;9.736;2024-03-07T09:09:31;24.38;;;12.68;;
30647;SDS011;17683;53.360;9.736;2024-03-07T09:11:57;20.98;;;12.73;;
30647;SDS011;17683;53.360;9.736;2024-03-07T09:14:23;23.27;;;13.77;;
30647;SDS011;17683;53.360;9.736;2024-03-07T09:16:49;24.45;;;13.32;;
30647;SDS011;17683;53.360;9.736;2024-03-07T09:19:14;22.45;;;12.23;;
30647;SDS011;17683;53.360;9.736;2024-03-07T09:21:45;17.35;;;11.45;;
30647;SDS011;17683;53.360;9.736;2024-03-07T09:24:11;21.05;;;12.43;;
30647;SDS011;17683;53.360;9.736;2024-03-07T09:26:37;20.15;;;12.05;;
30647;SDS011;17683;53.360;9.736;2024-03-07T09:29:03;20.30;;;12.90;;
30647;SDS011;17683;53.360;9.736;2024-03-07T09:31:31;17.17;;;12.18;;
30647;SDS011;17683;53.360;9.736;2024-03-07T09:33:58;18.83;;;12.05;;
30647;SDS011;17683;53.360;9.736;2024-03-07T09:36:24;18.52;;;12.05;;
30647;SDS011;17683;53.360;9.736;2024-03-07T09:38:50;19.83;;;12.43;;
30647;SDS011;17683;53.360;9.736;2024-03-07T09:41:16;22.33;;;10.95;;
30647;SDS011;17683;53.360;9.736;2024-03-07T09:43:48;18.35;;;10.93;;
30647;SDS011;17683;53.360;9.736;2024-03-07T09:48:49;16.88;;;10.60;;
30647;SDS011;17683;53.360;9.736;2024-03-07T09:51:19;19.98;;;11.23;;
30647;SDS011;17683;53.360;9.736;2024-03-07T09:53:49;18.08;;;10.73;;
30647;SDS011;17683;53.360;9.736;2024-03-07T09:56:20;14.50;;;10.93;;
30647;SDS011;17683;53.360;9.736;2024-03-07T09:58:50;20.27;;;11.25;;
30647;SDS011;17683;53.360;9.736;2024-03-07T10:01:20;16.88;;;10.20;;
30647;SDS011;17683;53.360;9.736;2024-03-07T10:03:47;19.75;;;11.48;;
30647;SDS011;17683;53.360;9.736;2024-03-07T10:06:15;23.23;;;12.35;;
30647;SDS011;17683;53.360;9.736;2024-03-07T10:08:41;16.58;;;10.77;;
30647;SDS011;17683;53.360;9.736;2024-03-07T10:11:08;17.10;;;9.90;;
30647;SDS011;17683;53.360;9.736;2024-03-07T10:13:34;14.95;;;9.68;;
30647;SDS011;17683;53.360;9.736;2024-03-07T10:16:03;16.70;;;10.45;;
30647;SDS011;17683;53.360;9.736;2024-03-07T10:18:30;17.33;;;10.63;;
30647;SDS011;17683;53.360;9.736;2024-03-07T10:20:57;16.90;;;10.02;;
30647;SDS011;17683;53.360;9.736;2024-03-07T10:23:23;17.08;;;10.48;;
30647;SDS011;17683;53.360;9.736;2024-03-07T10:25:52;17.95;;;11.65;;
30647;SDS011;17683;53.360;9.736;2024-03-07T10:28:21;19.30;;;10.85;;
30647;SDS011;17683;53.360;9.736;2024-03-07T10:30:47;19.70;;;10.43;;
30647;SDS011;17683;53.360;9.736;2024-03-07T10:33:15;15.77;;;10.38;;
30647;SDS011;17683;53.360;9.736;2024-03-07T10:35:42;19.05;;;11.68;;
30647;SDS011;17683;53.360;9.736;2024-03-07T10:38:11;23.60;;;12.40;;
30647;SDS011;17683;53.360;9.736;2024-03-07T10:40:38;21.92;;;11.13;;
30647;SDS011;17683;53.360;9.736;2024-03-07T10:43:09;18.52;;;11.05;;
30647;SDS011;17683;53.360;9.736;2024-03-07T10:45:46;20.17;;;11.02;;
30647;SDS011;17683;53.360;9.736;2024-03-07T10:48:13;18.33;;;10.80;;
30647;SDS011;17683;53.360;9.736;2024-03-07T10:50:46;18.15;;;11.30;;
30647;SDS011;17683;53.360;9.736;2024-03-07T10:54:10;20.10;;;11.52;;
30647;SDS011;17683;53.360;9.736;2024-03-07T10:59:50;19.48;;;11.88;;
30647;SDS011;17683;53.360;9.736;2024-03-07T11:02:30;20.83;;;12.13;;
30647;SDS011;17683;53.360;9.736;2024-03-07T11:04:58;21.05;;;12.45;;
30647;SDS011;17683;53.360;9.736;2024-03-07T11:07:24;17.45;;;11.63;;
30647;SDS011;17683;53.360;9.736;2024-03-07T11:09:52;18.92;;;12.43;;
30647;SDS011;17683;53.360;9.736;2024-03-07T11:12:23;25.75;;;11.88;;
30647;SDS011;17683;53.360;9.736;2024-03-07T11:14:51;24.52;;;12.93;;
30647;SDS011;17683;53.360;9.736;2024-03-07T11:17:20;19.50;;;11.40;;
30647;SDS011;17683;53.360;9.736;2024-03-07T11:19:47;20.15;;;12.65;;
30647;SDS011;17683;53.360;9.736;2024-03-07T11:22:30;22.63;;;11.85;;
30647;SDS011;17683;53.360;9.736;2024-03-07T11:27:26;21.77;;;12.40;;
30647;SDS011;17683;53.360;9.736;2024-03-07T11:29:52;22.73;;;12.82;;
30647;SDS011;17683;53.360;9.736;2024-03-07T11:32:18;26.42;;;13.95;;
30647;SDS011;17683;53.360;9.736;2024-03-07T11:34:48;24.73;;;14.57;;
30647;SDS011;17683;53.360;9.736;2024-03-07T11:37:18;21.60;;;14.20;;
30647;SDS011;17683;53.360;9.736;2024-03-07T11:40:13;22.70;;;13.38;;
30647;SDS011;17683;53.360;9.736;2024-03-07T11:42:49;21.33;;;13.13;;
30647;SDS011;17683;53.360;9.736;2024-03-07T11:45:16;23.17;;;14.93;;
30647;SDS011;17683;53.360;9.736;2024-03-07T11:48:06;26.52;;;15.20;;
30647;SDS011;17683;53.360;9.736;2024-03-07T11:50:39;24.58;;;13.60;;
30647;SDS011;17683;53.360;9.736;2024-03-07T11:53:06;22.10;;;14.75;;
30647;SDS011;17683;53.360;9.736;2024-03-07T11:55:36;22.65;;;13.98;;
30647;SDS011;17683;53.360;9.736;2024-03-07T12:00:43;21.63;;;14.27;;
30647;SDS011;17683;53.360;9.736;2024-03-07T12:03:13;20.60;;;13.77;;
30647;SDS011;17683;53.360;9.736;2024-03-07T12:05:42;25.70;;;14.95;;
30647;SDS011;17683;53.360;9.736;2024-03-07T12:08:09;23.83;;;15.10;;
30647;SDS011;17683;53.360;9.736;2024-03-07T12:10:40;24.48;;;15.18;;
30647;SDS011;17683;53.360;9.736;2024-03-07T12:13:10;20.63;;;14.43;;
30647;SDS011;17683;53.360;9.736;2024-03-07T12:15:38;23.23;;;15.18;;
30647;SDS011;17683;53.360;9.736;2024-03-07T12:18:04;27.90;;;15.40;;
30647;SDS011;17683;53.360;9.736;2024-03-07T12:20:35;28.33;;;15.95;;
30647;SDS011;17683;53.360;9.736;2024-03-07T12:23:02;24.25;;;15.05;;
30647;SDS011;17683;53.360;9.736;2024-03-07T12:25:30;24.52;;;15.00;;
30647;SDS011;17683;53.360;9.736;2024-03-07T12:30:34;26.60;;;15.43;;
30647;SDS011;17683;53.360;9.736;2024-03-07T12:33:01;23.80;;;15.20;;
30647;SDS011;17683;53.360;9.736;2024-03-07T12:35:32;34.60;;;17.50;;
30647;SDS011;17683;53.360;9.736;2024-03-07T12:37:58;26.67;;;15.18;;
30647;SDS011;17683;53.360;9.736;2024-03-07T12:40:25;26.25;;;15.48;;
30647;SDS011;17683;53.360;9.736;2024-03-07T12:42:54;23.38;;;14.27;;
30647;SDS011;17683;53.360;9.736;2024-03-07T12:45:19;27.17;;;16.10;;
30647;SDS011;17683;53.360;9.736;2024-03-07T12:47:46;27.13;;;16.40;;
30647;SDS011;17683;53.360;9.736;2024-03-07T12:50:16;29.75;;;16.63;;
30647;SDS011;17683;53.360;9.736;2024-03-07T12:52:45;27.30;;;15.02;;
30647;SDS011;17683;53.360;9.736;2024-03-07T12:55:15;22.98;;;14.82;;
30647;SDS011;17683;53.360;9.736;2024-03-07T12:57:47;23.65;;;16.10;;
30647;SDS011;17683;53.360;9.736;2024-03-07T13:00:15;27.27;;;16.00;;
30647;SDS011;17683;53.360;9.736;2024-03-07T13:02:46;26.45;;;16.58;;
30647;SDS011;17683;53.360;9.736;2024-03-07T13:05:12;26.90;;;15.95;;
30647;SDS011;17683;53.360;9.736;2024-03-07T13:07:48;26.45;;;16.35;;
30647;SDS011;17683;53.360;9.736;2024-03-07T13:10:20;27.60;;;16.80;;
30647;SDS011;17683;53.360;9.736;2024-03-07T13:12:48;27.92;;;16.15;;
30647;SDS011;17683;53.360;9.736;2024-03-07T13:15:15;24.90;;;16.10;;
30647;SDS011;17683;53.360;9.736;2024-03-07T13:17:41;28.60;;;16.90;;
30647;SDS011;17683;53.360;9.736;2024-03-07T13:20:10;27.63;;;16.33;;
30647;SDS011;17683;53.360;9.736;2024-03-07T13:22:40;31.85;;;17.75;;
30647;SDS011;17683;53.360;9.736;2024-03-07T13:25:19;36.30;;;17.23;;
30647;SDS011;17683;53.360;9.736;2024-03-07T13:27:58;28.10;;;17.17;;
30647;SDS011;17683;53.360;9.736;2024-03-07T13:30:32;27.30;;;17.40;;
30647;SDS011;17683;53.360;9.736;2024-03-07T13:33:01;30.50;;;17.92;;
30647;SDS011;17683;53.360;9.736;2024-03-07T13:35:28;26.77;;;17.08;;
30647;SDS011;17683;53.360;9.736;2024-03-07T13:37:54;27.95;;;18.08;;
30647;SDS011;17683;53.360;9.736;2024-03-07T13:40:24;26.50;;;17.13;;
30647;SDS011;17683;53.360;9.736;2024-03-07T13:43:00;33.60;;;17.95;;
30647;SDS011;17683;53.360;9.736;2024-03-07T13:45:29;29.75;;;18.60;;
30647;SDS011;17683;53.360;9.736;2024-03-07T13:47:56;30.42;;;17.70;;
30647;SDS011;17683;53.360;9.736;2024-03-07T13:50:27;33.50;;;19.77;;
30647;SDS011;17683;53.360;9.736;2024-03-07T13:52:53;27.08;;;16.80;;
30647;SDS011;17683;53.360;9.736;2024-03-07T13:58:34;32.55;;;18.73;;
30647;SDS011;17683;53.360;9.736;2024-03-07T14:16:53;29.95;;;18.60;;
30647;SDS011;17683;53.360;9.736;2024-03-07T14:29:03;31.13;;;19.02;;
30647;SDS011;17683;53.360;9.736;2024-03-07T14:31:51;31.73;;;18.40;;
30647;SDS011;17683;53.360;9.736;2024-03-07T14:36:56;30.98;;;18.20;;
30647;SDS011;17683;53.360;9.736;2024-03-07T14:39:29;32.70;;;17.92;;
30647;SDS011;17683;53.360;9.736;2024-03-07T14:42:03;29.48;;;18.95;;
30647;SDS011;17683;53.360;9.736;2024-03-07T14:44:37;28.60;;;17.90;;
30647;SDS011;17683;53.360;9.736;2024-03-07T14:47:07;29.25;;;17.23;;
30647;SDS011;17683;53.360;9.736;2024-03-07T14:49:36;26.83;;;16.80;;
30647;SDS011;17683;53.360;9.736;2024-03-07T14:52:03;28.52;;;17.00;;
30647;SDS011;17683;53.360;9.736;2024-03-07T14:54:35;26.88;;;16.80;;
30647;SDS011;17683;53.360;9.736;2024-03-07T14:57:05;29.13;;;16.17;;
30647;SDS011;17683;53.360;9.736;2024-03-07T14:59:35;27.65;;;17.17;;
30647;SDS011;17683;53.360;9.736;2024-03-07T15:02:01;25.08;;;16.20;;
30647;SDS011;17683;53.360;9.736;2024-03-07T15:04:29;22.92;;;16.27;;
30647;SDS011;17683;53.360;9.736;2024-03-07T15:06:57;28.10;;;17.65;;
30647;SDS011;17683;53.360;9.736;2024-03-07T15:09:24;30.27;;;17.63;;
30647;SDS011;17683;53.360;9.736;2024-03-07T15:11:50;27.55;;;16.23;;
30647;SDS011;17683;53.360;9.736;2024-03-07T15:14:15;27.63;;;16.67;;